Time;durP1;ratioP1;P1;durP2;ratioP2;P2;SDS_P1;SDS_P2;PMS_P1;PMS_P2;Temp;Humidity;BMP_temperature;BMP_pressure;BME280_temperature;BME280_humidity;BME280_pressure;Samples;Min_cycle;Max_cycle;Signal;HPM_P1;HPM_P2
2021/05/15 00:01:03;;;;;;;;;;;10.70;99.90;;;;;;5036279;28;19956;-67
2021/05/15 00:03:28;;;;;;;;;;;10.70;99.90;;;;;;5017157;28;19909;-66
2021/05/15 00:05:54;;;;;;;;;;;10.70;99.90;;;;;;5035173;28;19966;-66
2021/05/15 00:08:22;;;;;;;;;;;10.70;99.90;;;;;;5034450;28;19909;-66
2021/05/15 00:10:48;;;;;;;;;;;10.70;99.90;;;;;;5036199;28;19924;-66
2021/05/15 00:13:16;;;;;;;;;;;10.70;99.90;;;;;;5036413;28;19909;-66
2021/05/15 00:15:42;;;;;;;;;;;10.60;99.90;;;;;;5018230;28;19913;-66
2021/05/15 00:18:07;;;;;;;;;;;10.60;99.90;;;;;;5017482;28;20226;-66
2021/05/15 00:20:33;;;;;;;;;;;10.60;99.90;;;;;;5034768;28;19909;-66
2021/05/15 00:22:58;;;;;;;;;;;10.60;99.90;;;;;;5035734;28;20246;-65
2021/05/15 00:25:24;;;;;;;;;;;10.60;99.90;;;;;;5037120;28;20317;-66
2021/05/15 00:27:49;;;;;;;;;;;10.60;99.90;;;;;;5034364;28;20000;-67
2021/05/15 00:30:15;;;;;;;;;;;10.60;99.90;;;;;;5034611;28;20012;-67
2021/05/15 00:32:41;;;;;;;;;;;10.60;99.90;;;;;;5035030;28;19951;-66
2021/05/15 00:35:09;;;;;;;;;;;10.60;99.90;;;;;;5018001;28;19909;-67
2021/05/15 00:37:34;;;;;;;;;;;10.60;99.90;;;;;;5035214;28;19913;-66
2021/05/15 00:40:00;;;;;;;;;;;10.60;99.90;;;;;;5017802;28;20230;-67
2021/05/15 00:42:25;;;;;;;;;;;10.50;99.90;;;;;;5017217;28;19920;-67
2021/05/15 00:47:54;;;;;;;;;;;10.50;99.90;;;;;;5035030;28;19915;-66
2021/05/15 00:50:19;;;;;;;;;;;10.40;99.90;;;;;;5017011;28;20301;-66
2021/05/15 00:52:47;;;;;;;;;;;10.50;99.90;;;;;;5034443;28;19910;-66
2021/05/15 00:55:14;;;;;;;;;;;10.40;99.90;;;;;;5017635;28;20012;-67
2021/05/15 00:57:42;;;;;;;;;;;10.50;99.90;;;;;;5017484;28;20284;-67
2021/05/15 01:00:08;;;;;;;;;;;10.40;99.90;;;;;;5034383;28;19909;-66
2021/05/15 01:02:34;;;;;;;;;;;10.40;99.90;;;;;;5034630;28;19914;-67
2021/05/15 01:04:59;;;;;;;;;;;10.40;99.90;;;;;;5017287;28;20204;-66
2021/05/15 01:07:27;;;;;;;;;;;10.40;99.90;;;;;;5016975;28;19988;-67
2021/05/15 01:09:55;;;;;;;;;;;10.30;99.90;;;;;;5034278;28;19969;-66
2021/05/15 01:15:27;;;;;;;;;;;10.30;99.90;;;;;;5034290;28;20264;-66
2021/05/15 01:17:58;;;;;;;;;;;10.30;99.90;;;;;;5020449;28;19962;-66
2021/05/15 01:20:26;;;;;;;;;;;10.30;99.90;;;;;;5020393;28;19992;-66
2021/05/15 01:22:53;;;;;;;;;;;10.20;99.90;;;;;;5020325;28;19913;-66
2021/05/15 01:25:19;;;;;;;;;;;10.20;99.90;;;;;;5037558;28;19916;-66
2021/05/15 01:27:44;;;;;;;;;;;10.20;99.90;;;;;;5037537;28;19925;-66
2021/05/15 01:30:10;;;;;;;;;;;10.20;99.90;;;;;;5036784;28;20334;-66
2021/05/15 01:32:37;;;;;;;;;;;10.20;99.90;;;;;;5037844;28;19917;-66
2021/05/15 01:35:08;;;;;;;;;;;10.10;99.90;;;;;;5020126;28;20426;-66
2021/05/15 01:37:37;;;;;;;;;;;10.10;99.90;;;;;;5020361;28;19999;-66
2021/05/15 01:40:05;;;;;;;;;;;10.10;99.90;;;;;;5037425;28;19970;-67
2021/05/15 01:42:33;;;;;;;;;;;10.10;99.90;;;;;;5037692;28;19920;-67
2021/05/15 01:45:02;;;;;;;;;;;10.00;99.90;;;;;;5037430;28;19913;-67
2021/05/15 01:47:27;;;;;;;;;;;10.00;99.90;;;;;;5020756;28;19993;-66
2021/05/15 01:49:53;;;;;;;;;;;10.00;99.90;;;;;;5037930;28;19995;-67
2021/05/15 01:52:18;;;;;;;;;;;9.90;99.90;;;;;;5037328;28;19983;-66
2021/05/15 01:54:46;;;;;;;;;;;9.90;99.90;;;;;;5037988;28;19913;-66
2021/05/15 01:57:14;;;;;;;;;;;9.90;99.90;;;;;;5020222;28;20412;-66
2021/05/15 01:59:40;;;;;;;;;;;9.80;99.90;;;;;;5037381;28;19967;-66
2021/05/15 02:02:06;;;;;;;;;;;9.80;99.90;;;;;;5037013;28;19923;-67
2021/05/15 02:04:32;;;;;;;;;;;9.70;99.90;;;;;;5036927;28;20007;-66
2021/05/15 02:06:57;;;;;;;;;;;9.70;99.90;;;;;;5036978;28;19913;-66
2021/05/15 02:09:23;;;;;;;;;;;9.70;99.90;;;;;;5019706;28;20334;-66
2021/05/15 02:11:48;;;;;;;;;;;9.70;99.90;;;;;;5036684;28;20208;-66
2021/05/15 02:14:14;;;;;;;;;;;9.70;99.90;;;;;;5019512;28;19910;-66
2021/05/15 02:16:41;;;;;;;;;;;9.70;99.90;;;;;;5036671;28;20261;-66
2021/05/15 02:22:35;;;;;;;;;;;9.60;99.90;;;;;;5036090;28;20042;-66
2021/05/15 02:25:01;;;;;;;;;;;9.60;99.90;;;;;;5036609;28;19909;-66
2021/05/15 02:27:26;;;;;;;;;;;9.70;99.90;;;;;;5018917;28;20027;-67
2021/05/15 02:29:52;;;;;;;;;;;9.70;99.90;;;;;;5036366;28;19928;-67
2021/05/15 02:32:20;;;;;;;;;;;9.70;99.90;;;;;;5036414;28;19909;-67
2021/05/15 02:34:47;;;;;;;;;;;9.80;99.90;;;;;;5036325;28;19916;-66
2021/05/15 02:37:13;;;;;;;;;;;9.80;99.90;;;;;;5036463;28;19913;-66
2021/05/15 02:39:38;;;;;;;;;;;9.80;99.90;;;;;;5018790;28;20338;-66
2021/05/15 02:42:07;;;;;;;;;;;9.80;99.90;;;;;;5036199;28;20337;-67
2021/05/15 02:44:32;;;;;;;;;;;9.80;99.90;;;;;;5036127;28;19924;-68
2021/05/15 02:46:58;;;;;;;;;;;9.80;99.90;;;;;;5036505;28;19909;-67
2021/05/15 02:49:23;;;;;;;;;;;9.90;99.90;;;;;;5036163;28;19928;-66
2021/05/15 02:51:49;;;;;;;;;;;9.90;99.90;;;;;;5035954;28;19917;-67
2021/05/15 02:54:14;;;;;;;;;;;9.80;99.90;;;;;;5018656;28;20295;-66
2021/05/15 02:56:40;;;;;;;;;;;9.90;99.90;;;;;;5018813;28;19917;-66
2021/05/15 02:59:07;;;;;;;;;;;9.90;99.90;;;;;;5035857;28;19909;-66
2021/05/15 03:01:35;;;;;;;;;;;9.90;99.90;;;;;;5035839;28;19928;-66
2021/05/15 03:04:01;;;;;;;;;;;9.90;99.90;;;;;;5018473;28;19909;-65
2021/05/15 03:06:26;;;;;;;;;;;9.90;99.90;;;;;;5001942;28;19909;-66
2021/05/15 03:08:54;;;;;;;;;;;9.90;99.90;;;;;;5035790;28;19913;-66
2021/05/15 03:11:20;;;;;;;;;;;9.90;99.90;;;;;;5035573;28;19913;-66
2021/05/15 03:13:48;;;;;;;;;;;9.90;99.90;;;;;;5035853;28;19971;-66
2021/05/15 03:16:13;;;;;;;;;;;9.80;99.90;;;;;;5035580;28;20354;-66
2021/05/15 03:21:47;;;;;;;;;;;9.80;99.90;;;;;;5036028;28;20438;-66
2021/05/15 03:24:15;;;;;;;;;;;9.80;99.90;;;;;;5036036;28;19913;-66
2021/05/15 03:26:42;;;;;;;;;;;9.80;99.90;;;;;;5035270;28;19917;-66
2021/05/15 03:29:08;;;;;;;;;;;9.80;99.90;;;;;;5035910;28;19909;-66
2021/05/15 03:31:36;;;;;;;;;;;9.80;99.90;;;;;;5036331;28;20015;-66
2021/05/15 03:34:01;;;;;;;;;;;9.80;99.90;;;;;;5035883;28;19920;-66
2021/05/15 03:36:29;;;;;;;;;;;9.80;99.90;;;;;;5037350;28;20267;-66
2021/05/15 03:38:57;;;;;;;;;;;9.80;99.90;;;;;;5034683;28;19909;-66
2021/05/15 03:41:25;;;;;;;;;;;9.90;99.90;;;;;;5018304;28;19920;-66
2021/05/15 03:43:51;;;;;;;;;;;9.80;99.90;;;;;;5035776;28;19921;-66
2021/05/15 03:46:16;;;;;;;;;;;9.90;99.90;;;;;;5035193;28;19909;-67
2021/05/15 03:48:42;;;;;;;;;;;9.90;99.90;;;;;;5035449;28;20298;-66
2021/05/15 03:51:12;;;;;;;;;;;9.90;99.90;;;;;;5034896;28;20339;-66
2021/05/15 03:53:40;;;;;;;;;;;10.00;99.90;;;;;;5035256;28;19951;-66
2021/05/15 03:56:05;;;;;;;;;;;10.00;99.90;;;;;;5035293;28;20298;-66
2021/05/15 03:58:31;;;;;;;;;;;10.00;99.90;;;;;;5035005;28;19916;-66
2021/05/15 04:00:56;;;;;;;;;;;10.00;99.90;;;;;;5034868;28;19909;-66
2021/05/15 04:03:24;;;;;;;;;;;10.00;99.90;;;;;;5034783;28;19913;-66
2021/05/15 04:05:52;;;;;;;;;;;10.00;99.90;;;;;;5034875;28;20335;-66
2021/05/15 04:08:20;;;;;;;;;;;10.10;99.90;;;;;;5034786;28;19917;-66
2021/05/15 04:10:46;;;;;;;;;;;10.00;99.90;;;;;;5034939;28;19920;-67
2021/05/15 04:15:51;;;;;;;;;;;10.00;99.90;;;;;;5035213;28;19919;-66
2021/05/15 04:18:19;;;;;;;;;;;10.00;99.90;;;;;;5034981;28;19929;-66
2021/05/15 04:23:49;;;;;;;;;;;10.10;99.90;;;;;;5034901;28;19919;-66
2021/05/15 04:26:15;;;;;;;;;;;10.10;99.90;;;;;;5017347;28;19909;-65
2021/05/15 04:28:40;;;;;;;;;;;10.00;99.90;;;;;;5034887;28;19924;-66
2021/05/15 04:31:08;;;;;;;;;;;10.00;99.90;;;;;;5034604;28;20024;-66
2021/05/15 04:33:36;;;;;;;;;;;9.90;99.90;;;;;;5034657;28;19920;-66
2021/05/15 04:36:01;;;;;;;;;;;9.90;99.90;;;;;;5034583;28;19940;-66
2021/05/15 04:38:27;;;;;;;;;;;10.00;99.90;;;;;;5034859;28;19913;-66
2021/05/15 04:40:53;;;;;;;;;;;9.90;99.90;;;;;;5034598;28;19917;-66
2021/05/15 04:43:21;;;;;;;;;;;10.00;99.90;;;;;;5017528;28;19958;-66
2021/05/15 04:45:46;;;;;;;;;;;9.90;99.90;;;;;;5034788;28;19909;-66
2021/05/15 04:48:16;;;;;;;;;;;10.00;99.90;;;;;;5034684;28;20357;-66
2021/05/15 04:50:42;;;;;;;;;;;10.00;99.90;;;;;;5036671;28;20013;-66
2021/05/15 04:53:10;;;;;;;;;;;9.90;99.90;;;;;;5038389;28;19914;-66
2021/05/15 04:55:36;;;;;;;;;;;9.90;99.90;;;;;;5020993;28;19955;-66
2021/05/15 04:58:01;;;;;;;;;;;9.90;99.90;;;;;;5038155;28;19990;-66
2021/05/15 05:00:29;;;;;;;;;;;9.90;99.90;;;;;;5020854;28;19909;-66
2021/05/15 05:02:55;;;;;;;;;;;9.90;99.90;;;;;;5020861;28;20314;-66
2021/05/15 05:05:20;;;;;;;;;;;9.80;99.90;;;;;;5038738;28;20004;-66
2021/05/15 05:07:46;;;;;;;;;;;9.80;99.90;;;;;;5038288;28;19977;-66
2021/05/15 05:10:13;;;;;;;;;;;9.90;99.90;;;;;;5038305;28;20333;-66
2021/05/15 05:12:39;;;;;;;;;;;9.90;99.90;;;;;;5020544;28;19952;-66
2021/05/15 05:15:07;;;;;;;;;;;9.90;99.90;;;;;;5038591;28;19916;-66
2021/05/15 05:17:33;;;;;;;;;;;10.00;99.90;;;;;;5020488;28;19967;-66
2021/05/15 05:19:58;;;;;;;;;;;10.00;99.90;;;;;;5020963;28;20004;-66
2021/05/15 05:22:26;;;;;;;;;;;9.90;99.90;;;;;;5037903;28;19920;-66
2021/05/15 05:24:51;;;;;;;;;;;9.90;99.90;;;;;;5037914;28;19952;-66
2021/05/15 05:27:22;;;;;;;;;;;9.90;99.90;;;;;;5037590;28;20278;-66
2021/05/15 05:32:51;;;;;;;;;;;10.00;99.90;;;;;;5037735;28;19924;-66
2021/05/15 05:35:16;;;;;;;;;;;10.00;99.90;;;;;;5038249;28;19909;-66
2021/05/15 05:37:42;;;;;;;;;;;10.10;99.90;;;;;;5036701;28;19941;-66
2021/05/15 05:40:10;;;;;;;;;;;10.10;99.90;;;;;;5037802;28;19917;-66
2021/05/15 05:42:36;;;;;;;;;;;10.10;99.90;;;;;;5021220;28;19963;-66
2021/05/15 05:45:02;;;;;;;;;;;10.10;99.90;;;;;;5019845;28;19919;-66
2021/05/15 05:47:28;;;;;;;;;;;10.10;99.90;;;;;;5037460;28;20290;-66
2021/05/15 05:49:53;;;;;;;;;;;10.10;99.90;;;;;;5020066;28;19909;-66
2021/05/15 05:52:19;;;;;;;;;;;10.20;99.90;;;;;;5037418;28;20268;-66
2021/05/15 05:54:47;;;;;;;;;;;10.20;99.90;;;;;;5037575;28;20238;-67
2021/05/15 05:57:14;;;;;;;;;;;10.20;99.90;;;;;;5037170;28;20059;-66
2021/05/15 05:59:42;;;;;;;;;;;10.20;99.90;;;;;;5019623;28;19916;-66
2021/05/15 06:02:08;;;;;;;;;;;10.30;99.90;;;;;;5019528;28;19932;-66
2021/05/15 06:04:35;;;;;;;;;;;10.30;99.90;;;;;;5036945;28;20334;-66
2021/05/15 06:07:03;;;;;;;;;;;10.30;99.90;;;;;;5037073;28;19909;-66
2021/05/15 06:09:28;;;;;;;;;;;10.30;99.90;;;;;;5019446;28;19909;-66
2021/05/15 06:11:54;;;;;;;;;;;10.30;99.90;;;;;;5036718;28;19925;-65
2021/05/15 06:14:24;;;;;;;;;;;10.30;99.90;;;;;;5019660;28;20299;-66
2021/05/15 06:16:50;;;;;;;;;;;10.40;99.90;;;;;;5019893;28;19940;-66
2021/05/15 06:19:17;;;;;;;;;;;10.40;99.90;;;;;;5036711;28;19920;-66
2021/05/15 06:21:43;;;;;;;;;;;10.50;99.90;;;;;;5036656;28;19948;-66
2021/05/15 06:24:11;;;;;;;;;;;10.50;99.90;;;;;;5019872;28;19953;-66
2021/05/15 06:26:37;;;;;;;;;;;10.60;99.90;;;;;;5003330;28;19975;-66
2021/05/15 06:29:02;;;;;;;;;;;10.60;99.90;;;;;;5019080;28;19921;-66
2021/05/15 06:31:28;;;;;;;;;;;10.60;99.90;;;;;;5019101;28;19939;-66
2021/05/15 06:33:53;;;;;;;;;;;10.70;99.90;;;;;;5036496;28;19909;-65
2021/05/15 06:36:21;;;;;;;;;;;10.70;99.90;;;;;;5036385;28;19920;-66
2021/05/15 06:38:47;;;;;;;;;;;10.80;99.90;;;;;;5036460;28;19920;-66
2021/05/15 06:41:15;;;;;;;;;;;10.90;99.90;;;;;;5036702;28;19913;-65
2021/05/15 06:43:40;;;;;;;;;;;10.90;99.90;;;;;;5036999;28;20362;-66
2021/05/15 06:46:06;;;;;;;;;;;11.10;99.90;;;;;;5019483;28;19909;-66
2021/05/15 06:48:31;;;;;;;;;;;11.20;99.90;;;;;;5018858;28;19909;-66
2021/05/15 06:50:57;;;;;;;;;;;11.20;99.90;;;;;;5018742;28;20040;-66
2021/05/15 06:53:27;;;;;;;;;;;11.20;99.90;;;;;;5036334;28;19996;-66
2021/05/15 06:55:53;;;;;;;;;;;11.20;99.90;;;;;;5036258;28;19974;-66
2021/05/15 06:58:18;;;;;;;;;;;11.30;99.90;;;;;;5036399;28;19914;-67
2021/05/15 07:00:44;;;;;;;;;;;11.30;99.90;;;;;;5035938;28;20232;-66
2021/05/15 07:03:09;;;;;;;;;;;11.40;99.90;;;;;;5036598;28;19909;-66
2021/05/15 07:05:35;;;;;;;;;;;11.50;99.90;;;;;;5036305;28;20267;-67
2021/05/15 07:08:03;;;;;;;;;;;11.50;99.90;;;;;;5018840;28;19909;-66
2021/05/15 07:10:31;;;;;;;;;;;11.60;99.90;;;;;;5036054;28;19960;-66
2021/05/15 07:13:01;;;;;;;;;;;11.60;99.90;;;;;;5018211;28;20333;-66
2021/05/15 07:15:27;;;;;;;;;;;11.50;99.90;;;;;;5018981;28;19921;-66
2021/05/15 07:17:57;;;;;;;;;;;11.40;99.90;;;;;;5018325;28;20358;-66
2021/05/15 07:20:25;;;;;;;;;;;11.50;99.90;;;;;;5018892;28;19923;-66
2021/05/15 07:22:53;;;;;;;;;;;11.50;99.90;;;;;;5001749;28;19920;-66
2021/05/15 07:25:19;;;;;;;;;;;11.60;99.90;;;;;;5035578;28;19909;-66
2021/05/15 07:27:44;;;;;;;;;;;11.60;99.90;;;;;;5035146;28;20379;-67
2021/05/15 07:30:11;;;;;;;;;;;11.70;99.90;;;;;;5035383;28;20375;-66
2021/05/15 07:32:39;;;;;;;;;;;11.70;99.90;;;;;;5035321;28;19909;-66
2021/05/15 07:35:07;;;;;;;;;;;11.70;99.90;;;;;;5017917;28;19909;-66
2021/05/15 07:37:33;;;;;;;;;;;11.70;99.90;;;;;;5035363;28;19967;-66
2021/05/15 07:40:01;;;;;;;;;;;11.70;99.90;;;;;;5035215;28;19924;-66
2021/05/15 07:42:26;;;;;;;;;;;11.80;99.90;;;;;;5035306;28;19909;-66
2021/05/15 07:44:52;;;;;;;;;;;11.90;99.90;;;;;;5035480;28;19913;-66
2021/05/15 07:47:20;;;;;;;;;;;11.90;99.90;;;;;;5035915;28;20347;-66
2021/05/15 07:49:45;;;;;;;;;;;12.10;99.90;;;;;;5018006;28;19909;-66
2021/05/15 07:52:11;;;;;;;;;;;12.10;99.90;;;;;;5035627;28;19910;-66
2021/05/15 07:54:36;;;;;;;;;;;12.10;99.90;;;;;;5034942;28;19909;-66
2021/05/15 07:57:04;;;;;;;;;;;12.30;99.90;;;;;;5017886;28;19921;-66
2021/05/15 07:59:32;;;;;;;;;;;12.40;99.90;;;;;;5034951;28;19949;-66
2021/05/15 08:01:57;;;;;;;;;;;12.50;99.90;;;;;;5017487;28;20298;-66
2021/05/15 08:04:25;;;;;;;;;;;12.60;99.90;;;;;;5017667;28;19949;-66
2021/05/15 08:06:51;;;;;;;;;;;12.70;99.90;;;;;;5034711;28;19917;-66
2021/05/15 08:09:16;;;;;;;;;;;12.90;99.90;;;;;;5017475;28;19920;-66
2021/05/15 08:11:42;;;;;;;;;;;12.90;99.90;;;;;;5034780;28;19925;-66
2021/05/15 08:14:10;;;;;;;;;;;13.00;99.90;;;;;;5034696;28;19920;-66
2021/05/15 08:16:35;;;;;;;;;;;12.90;99.00;;;;;;5034970;28;19971;-67
2021/05/15 08:19:05;;;;;;;;;;;13.00;99.90;;;;;;5034568;28;19920;-66
2021/05/15 08:21:31;;;;;;;;;;;13.00;99.20;;;;;;5033805;28;20372;-66
2021/05/15 08:24:00;;;;;;;;;;;13.00;99.90;;;;;;5034654;28;19910;-66
2021/05/15 08:26:27;;;;;;;;;;;13.00;98.20;;;;;;5037955;28;20336;-65
2021/05/15 08:28:56;;;;;;;;;;;13.00;97.70;;;;;;5022395;28;20235;-66
2021/05/15 08:31:23;;;;;;;;;;;13.10;96.70;;;;;;5039148;28;19917;-66
2021/05/15 08:33:49;;;;;;;;;;;13.20;99.90;;;;;;5039267;28;19999;-67
2021/05/15 08:36:14;;;;;;;;;;;13.30;97.70;;;;;;5039264;28;19952;-65
2021/05/15 08:38:43;;;;;;;;;;;13.40;94.00;;;;;;5039623;28;19920;-66
2021/05/15 08:41:08;;;;;;;;;;;13.50;96.10;;;;;;5039041;28;19909;-66
2021/05/15 08:43:35;;;;;;;;;;;13.80;99.90;;;;;;5038887;28;19909;-66
2021/05/15 08:46:03;;;;;;;;;;;13.80;95.20;;;;;;5021606;28;20235;-67
2021/05/15 08:48:29;;;;;;;;;;;13.80;94.20;;;;;;5021184;28;20368;-66
2021/05/15 08:50:58;;;;;;;;;;;13.80;91.20;;;;;;5022259;28;19912;-67
2021/05/15 08:53:23;;;;;;;;;;;13.90;93.30;;;;;;5021676;28;19909;-67
2021/05/15 08:55:49;;;;;;;;;;;14.00;91.30;;;;;;5021288;28;19913;-66
2021/05/15 08:58:14;;;;;;;;;;;14.00;91.40;;;;;;5038043;28;20303;-68
2021/05/15 09:00:42;;;;;;;;;;;14.10;86.00;;;;;;5038128;28;19909;-67
2021/05/15 09:23:51;;;;;;;5.88;3.78;;;14.60;84.10;;;;;;5086140;27;20448;-65
2021/05/15 09:26:27;;;;;;;5.88;4.30;;;14.40;84.90;;;;;;5084785;28;20028;-67
2021/05/15 09:28:59;;;;;;;7.90;5.95;;;14.30;85.00;;;;;;5085307;28;20115;-66
2021/05/15 09:31:38;;;;;;;7.53;5.45;;;14.30;85.00;;;;;;5085134;28;20610;-66
2021/05/15 09:34:07;;;;;;;6.78;4.60;;;14.10;82.90;;;;;;5083998;28;20032;-66
2021/05/15 09:36:39;;;;;;;6.53;4.57;;;14.40;90.40;;;;;;5083720;28;20025;-68
2021/05/15 09:39:25;;;;;;;8.63;5.43;;;14.40;88.80;;;;;;5082289;28;20020;-66
2021/05/15 09:41:51;;;;;;;7.88;5.15;;;14.30;84.80;;;;;;5082488;28;20043;-67
2021/05/15 09:44:27;;;;;;;7.25;5.32;;;14.20;89.60;;;;;;5088767;28;20019;-67
2021/05/15 09:46:56;;;;;;;7.43;5.63;;;14.30;89.70;;;;;;5092261;28;20111;-67
2021/05/15 09:49:29;;;;;;;8.40;5.30;;;14.30;86.90;;;;;;5090543;28;20019;-67
2021/05/15 09:51:56;;;;;;;7.45;4.57;;;14.10;86.30;;;;;;5092237;28;20047;-67
2021/05/15 09:54:25;;;;;;;6.63;4.57;;;14.10;89.70;;;;;;5080705;28;20032;-71
2021/05/15 09:57:06;;;;;;;7.35;5.35;;;14.20;91.90;;;;;;5098049;28;20028;-67
2021/05/15 09:59:36;;;;;;;6.55;4.55;;;14.20;87.80;;;;;;5091671;28;20081;-67
2021/05/15 10:02:09;;;;;;;6.97;4.18;;;14.30;89.00;;;;;;5090535;28;20084;-67
2021/05/15 10:04:35;;;;;;;6.35;3.90;;;14.30;91.00;;;;;;5089478;28;20032;-68
2021/05/15 10:07:03;;;;;;;5.47;3.95;;;14.50;87.90;;;;;;5090075;28;20038;-68
2021/05/15 10:09:29;;;;;;;6.82;4.10;;;14.60;89.30;;;;;;5090881;28;20077;-68
2021/05/15 10:11:57;;;;;;;6.57;4.00;;;14.60;89.60;;;;;;5090756;28;20016;-68
2021/05/15 10:14:23;;;;;;;8.93;5.70;;;14.70;90.40;;;;;;5088151;28;20032;-67
2021/05/15 10:16:50;;;;;;;5.75;4.18;;;14.60;87.10;;;;;;5094770;28;20020;-67
2021/05/15 10:19:16;;;;;;;6.53;4.00;;;14.50;87.70;;;;;;5081837;28;20123;-67
2021/05/15 10:21:42;;;;;;;5.30;3.70;;;14.30;86.20;;;;;;5091849;28;20591;-67
2021/05/15 10:24:31;;;;;;;5.28;3.55;;;14.30;86.10;;;;;;5090915;28;20115;-68
2021/05/15 10:27:07;;;;;;;6.65;4.05;;;14.40;90.80;;;;;;5075117;28;20055;-68
2021/05/15 10:29:40;;;;;;;5.75;3.70;;;14.40;90.20;;;;;;5071294;28;20094;-67
2021/05/15 10:32:14;;;;;;;5.45;3.78;;;14.40;91.60;;;;;;5094970;28;20055;-67
2021/05/15 10:34:40;;;;;;;6.13;4.05;;;14.50;93.80;;;;;;5080260;28;20031;-68
2021/05/15 10:37:20;;;;;;;5.22;3.78;;;14.50;92.90;;;;;;5077611;28;20094;-68
2021/05/15 10:39:50;;;;;;;5.70;4.30;;;14.50;93.90;;;;;;5079708;28;20028;-67
2021/05/15 10:42:32;;;;;;;6.55;4.13;;;14.30;92.20;;;;;;5079935;28;20667;-68
2021/05/15 10:44:59;;;;;;;6.93;4.20;;;14.30;94.00;;;;;;5076219;28;20044;-67
2021/05/15 10:47:27;;;;;;;6.10;4.10;;;14.10;95.60;;;;;;5074720;28;20024;-68
2021/05/15 10:50:20;;;;;;;6.95;4.10;;;14.20;97.30;;;;;;5079079;28;20029;-67
2021/05/15 10:52:50;;;;;;;5.95;3.90;;;14.10;97.30;;;;;;5079578;28;20024;-68
2021/05/15 10:55:36;;;;;;;5.63;3.97;;;14.10;99.70;;;;;;5075529;28;20091;-67
2021/05/15 10:58:12;;;;;;;5.22;3.63;;;14.10;99.90;;;;;;5074992;28;20032;-67
2021/05/15 11:00:38;;;;;;;5.55;3.20;;;14.20;99.90;;;;;;5075577;28;20039;-67
2021/05/15 11:03:04;;;;;;;5.00;3.08;;;14.30;99.90;;;;;;5079681;28;20092;-68
2021/05/15 11:05:41;;;;;;;5.63;2.90;;;14.40;99.70;;;;;;5075491;28;20028;-68
2021/05/15 11:08:08;;;;;;;4.65;3.00;;;14.40;99.80;;;;;;5080405;28;20590;-68
2021/05/15 11:10:39;;;;;;;5.15;2.90;;;14.30;98.50;;;;;;5076613;28;20070;-68
2021/05/15 11:13:13;;;;;;;4.63;2.60;;;14.30;99.90;;;;;;5077429;28;20028;-68
2021/05/15 11:15:39;;;;;;;4.55;2.60;;;14.30;99.90;;;;;;5074957;28;20562;-67
2021/05/15 11:18:05;;;;;;;4.03;2.40;;;14.10;99.60;;;;;;5078973;28;20122;-68
2021/05/15 11:20:44;;;;;;;3.85;2.50;;;14.10;99.90;;;;;;5080058;28;20028;-68
2021/05/15 11:23:14;;;;;;;4.55;2.80;;;14.10;99.90;;;;;;5075684;28;20130;-67
2021/05/15 11:25:51;;;;;;;4.55;2.60;;;14.00;98.80;;;;;;5081510;28;20416;-68
2021/05/15 11:28:27;;;;;;;4.55;3.10;;;14.00;99.90;;;;;;5076441;28;20032;-68
2021/05/15 11:30:53;;;;;;;5.05;3.30;;;13.90;99.90;;;;;;5058226;28;20024;-67
2021/05/15 11:33:21;;;;;;;4.82;2.92;;;14.00;99.90;;;;;;5075642;28;20055;-67
2021/05/15 11:35:58;;;;;;;5.50;2.50;;;14.10;99.90;;;;;;5067131;28;20074;-68
2021/05/15 11:38:27;;;;;;;3.95;2.58;;;14.20;99.90;;;;;;5076763;28;20957;-67
2021/05/15 11:40:57;;;;;;;4.68;2.45;;;14.20;98.60;;;;;;5079260;28;20373;-67
2021/05/15 11:43:23;;;;;;;4.25;2.53;;;14.30;99.80;;;;;;5076117;28;20033;-67
2021/05/15 11:45:50;;;;;;;4.28;2.50;;;14.50;99.90;;;;;;5075389;28;20020;-68
2021/05/15 11:48:20;;;;;;;4.00;2.42;;;14.60;99.90;;;;;;5074064;28;20054;-68
2021/05/15 11:50:59;;;;;;;3.85;2.20;;;14.60;97.20;;;;;;5075832;28;20044;-67
2021/05/15 11:53:25;;;;;;;5.10;2.42;;;14.80;98.80;;;;;;5077374;28;20093;-68
2021/05/15 11:55:51;;;;;;;3.97;2.20;;;14.90;97.10;;;;;;5077456;28;20024;-68
2021/05/15 11:58:17;;;;;;;3.63;2.40;;;14.90;93.90;;;;;;5075702;28;20047;-67
2021/05/15 12:00:43;;;;;;;3.90;2.20;;;14.80;93.20;;;;;;5074711;28;20055;-67
2021/05/15 12:03:11;;;;;;;3.13;2.00;;;14.70;93.30;;;;;;5077382;28;20032;-67
2021/05/15 12:05:39;;;;;;;4.75;2.35;;;14.80;95.20;;;;;;5072968;28;20041;-67
2021/05/15 12:08:13;;;;;;;3.65;2.00;;;14.80;95.20;;;;;;5077614;28;20101;-68
2021/05/15 12:10:40;;;;;;;3.00;1.88;;;14.70;93.80;;;;;;5077187;28;20043;-68
2021/05/15 12:13:08;;;;;;;4.63;1.90;;;14.60;92.50;;;;;;5076655;28;20445;-68
2021/05/15 12:15:41;;;;;;;8.25;5.68;;;14.70;93.80;;;;;;5072146;28;20040;-68
2021/05/15 12:18:07;;;;;;;3.22;1.90;;;14.70;95.80;;;;;;5079900;28;20025;-68
2021/05/15 12:20:38;;;;;;;4.22;1.95;;;14.70;92.30;;;;;;5075341;28;20031;-68
2021/05/15 12:23:09;;;;;;;4.57;2.20;;;14.80;91.70;;;;;;5077275;28;20083;-67
2021/05/15 12:25:38;;;;;;;3.43;1.90;;;14.90;92.20;;;;;;5075855;28;20021;-68
2021/05/15 12:28:42;;;;;;;3.95;1.70;;;15.10;91.00;;;;;;5076108;28;20340;-67
2021/05/15 12:31:18;;;;;;;4.28;2.10;;;15.40;94.50;;;;;;5070322;28;20068;-67
2021/05/15 12:33:44;;;;;;;3.70;1.80;;;15.20;82.50;;;;;;5057838;28;20038;-67
2021/05/15 12:36:09;;;;;;;3.22;1.90;;;14.90;82.70;;;;;;5074782;28;20032;-68
2021/05/15 12:38:54;;;;;;;2.75;1.80;;;15.00;92.40;;;;;;5074651;28;20119;-68
2021/05/15 12:41:22;;;;;;;3.80;1.92;;;15.00;89.40;;;;;;5075914;28;20029;-68
2021/05/15 12:43:59;;;;;;;3.13;1.58;;;15.20;95.70;;;;;;5076210;28;20032;-68
2021/05/15 12:46:25;;;;;;;2.97;1.58;;;15.40;93.30;;;;;;5075200;28;20440;-68
2021/05/15 12:49:01;;;;;;;2.35;1.40;;;15.30;82.70;;;;;;5076122;28;20020;-67
2021/05/15 12:51:28;;;;;;;2.95;1.40;;;15.20;83.20;;;;;;5073437;28;20024;-68
2021/05/15 12:53:56;;;;;;;5.95;2.85;;;15.10;83.10;;;;;;5076665;28;20445;-67
2021/05/15 12:56:29;;;;;;;3.22;1.80;;;15.10;84.20;;;;;;5077715;28;20039;-68
2021/05/15 12:58:57;;;;;;;3.53;1.67;;;15.20;81.50;;;;;;5057163;28;20552;-68
2021/05/15 13:01:23;;;;;;;3.70;1.55;;;15.10;80.10;;;;;;5073018;28;20024;-68
2021/05/15 13:03:55;;;;;;;3.40;1.40;;;14.90;80.10;;;;;;5073636;28;20357;-67
2021/05/15 13:06:23;;;;;;;2.35;1.30;;;14.90;78.50;;;;;;5076565;28;20020;-68
2021/05/15 13:08:55;;;;;;;3.00;1.40;;;14.90;82.50;;;;;;5079344;28;20024;-68
2021/05/15 13:11:24;;;;;;;3.55;1.25;;;14.90;84.00;;;;;;5073855;28;20477;-68
2021/05/15 13:13:56;;;;;;;4.72;2.17;;;14.80;82.50;;;;;;5073566;28;20028;-68
2021/05/15 13:16:21;;;;;;;8.65;4.13;;;14.70;80.30;;;;;;5064466;28;20119;-68
2021/05/15 13:18:59;;;;;;;5.93;2.10;;;14.60;89.40;;;;;;5074014;28;20104;-67
2021/05/15 13:21:29;;;;;;;4.03;1.80;;;14.60;94.20;;;;;;5073253;28;20033;-65
2021/05/15 13:23:57;;;;;;;2.80;1.63;;;14.50;93.30;;;;;;5075255;28;20036;-69
2021/05/15 13:26:25;;;;;;;3.97;1.80;;;14.30;93.80;;;;;;5075282;28;20098;-67
2021/05/15 13:28:51;;;;;;;3.60;1.75;;;14.20;97.30;;;;;;5075943;28;20040;-67
2021/05/15 13:31:21;;;;;;;4.85;1.90;;;14.00;96.30;;;;;;5074744;28;20033;-67
2021/05/15 13:33:49;;;;;;;2.85;1.60;;;14.00;99.90;;;;;;5077907;28;20037;-67
2021/05/15 13:36:17;;;;;;;2.92;1.60;;;13.80;97.30;;;;;;5072814;28;20039;-67
2021/05/15 13:38:45;;;;;;;3.70;1.77;;;13.70;98.40;;;;;;5076456;28;20092;-67
2021/05/15 13:41:13;;;;;;;4.88;2.00;;;13.60;99.80;;;;;;5060075;28;20115;-67
2021/05/15 13:43:39;;;;;;;5.07;2.10;;;13.60;99.90;;;;;;5077151;28;20032;-67
2021/05/15 13:46:05;;;;;;;4.25;1.95;;;13.70;99.90;;;;;;5077511;28;20032;-67
2021/05/15 13:48:33;;;;;;;4.05;1.50;;;13.80;99.90;;;;;;5076955;28;20394;-67
2021/05/15 13:51:09;;;;;;;4.65;1.80;;;13.80;99.90;;;;;;5078690;28;20082;-67
2021/05/15 13:53:35;;;;;;;4.43;1.60;;;13.80;99.90;;;;;;5077697;28;20365;-67
2021/05/15 13:56:02;;;;;;;4.50;1.70;;;13.90;99.90;;;;;;5076689;28;20106;-67
2021/05/15 13:58:30;;;;;;;4.68;1.98;;;13.90;99.90;;;;;;5078074;28;20052;-68
2021/05/15 14:00:58;;;;;;;5.13;2.22;;;14.00;99.90;;;;;;5077707;28;20025;-68
2021/05/15 14:03:24;;;;;;;4.90;2.30;;;14.00;99.90;;;;;;5076885;28;20056;-68
2021/05/15 14:05:52;;;;;;;3.58;1.80;;;14.10;99.90;;;;;;5079208;28;20079;-68
2021/05/15 14:08:17;;;;;;;3.38;1.80;;;14.10;99.90;;;;;;5074791;28;20086;-68
2021/05/15 14:10:48;;;;;;;3.00;1.70;;;14.00;99.90;;;;;;5077425;28;20025;-68
2021/05/15 14:13:15;;;;;;;3.17;1.73;;;14.00;99.90;;;;;;5079576;28;20028;-67
2021/05/15 14:15:41;;;;;;;4.50;1.77;;;13.80;99.90;;;;;;5079992;28;20050;-68
2021/05/15 14:18:09;;;;;;;5.20;1.80;;;13.90;99.90;;;;;;5071102;28;20473;-68
2021/05/15 14:20:35;;;;;;;2.47;1.50;;;13.90;99.90;;;;;;5080804;28;20059;-68
2021/05/15 14:23:01;;;;;;;3.20;1.73;;;14.00;99.90;;;;;;5080431;28;21592;-70
2021/05/15 14:25:27;;;;;;;3.60;1.60;;;14.10;99.90;;;;;;5081067;28;20520;-68
2021/05/15 14:27:57;;;;;;;2.92;1.67;;;14.10;99.90;;;;;;5081385;28;20109;-68
2021/05/15 14:30:23;;;;;;;4.50;1.80;;;14.20;99.90;;;;;;5068229;28;20020;-68